createdAt,value
2023-05-24T00:00:22.273Z,3.20
2023-05-24T00:02:49.948Z,3.20
2023-05-24T00:05:18.890Z,3.10
2023-05-24T00:07:46.229Z,3.38
2023-05-24T00:10:13.438Z,3.38
2023-05-24T00:12:40.844Z,3.22
2023-05-24T00:15:08.289Z,3.65
2023-05-24T00:17:42.662Z,3.15
2023-05-24T00:20:14.411Z,3.28
2023-05-24T00:22:42.440Z,3.38
2023-05-24T00:25:10.094Z,3.25
2023-05-24T00:27:37.808Z,3.35
2023-05-24T00:30:05.809Z,3.42
2023-05-24T00:32:33.126Z,3.22
2023-05-24T00:35:00.651Z,4.15
2023-05-24T00:37:29.476Z,3.78
2023-05-24T00:39:56.780Z,3.20
2023-05-24T00:42:24.142Z,3.55
2023-05-24T00:44:51.314Z,3.17
2023-05-24T00:47:18.622Z,3.92
2023-05-24T00:49:45.862Z,3.58
2023-05-24T00:52:13.124Z,3.38
2023-05-24T00:54:40.818Z,3.08
2023-05-24T00:57:08.256Z,3.55
2023-05-24T00:59:35.687Z,3.35
2023-05-24T01:02:02.901Z,3.53
2023-05-24T01:04:32.635Z,3.38
2023-05-24T01:07:19.222Z,4.10
2023-05-24T01:09:46.376Z,3.47
2023-05-24T01:12:13.530Z,4.35
2023-05-24T01:15:05.221Z,3.88
2023-05-24T01:18:02.069Z,4.13
2023-05-24T01:20:33.905Z,3.75
2023-05-24T01:23:10.627Z,4.07
2023-05-24T01:25:38.981Z,4.40
2023-05-24T01:28:08.690Z,4.20
2023-05-24T01:30:36.490Z,4.22
2023-05-24T01:33:03.934Z,4.07
2023-05-24T01:35:31.268Z,4.15
2023-05-24T01:37:58.428Z,3.90
2023-05-24T01:40:25.760Z,3.63
2023-05-24T01:43:16.252Z,4.00
2023-05-24T01:45:46.461Z,4.47
2023-05-24T01:48:19.931Z,4.10
2023-05-24T01:50:53.618Z,4.47
2023-05-24T01:53:21.569Z,4.22
2023-05-24T01:55:54.232Z,4.57
2023-05-24T01:58:23.001Z,4.25
2023-05-24T02:00:51.235Z,4.53
2023-05-24T02:03:18.808Z,4.20
2023-05-24T02:05:46.448Z,4.68
2023-05-24T02:08:13.698Z,4.40
2023-05-24T02:10:41.516Z,4.38
2023-05-24T02:13:09.131Z,4.70
2023-05-24T02:15:36.696Z,5.07
2023-05-24T02:18:04.352Z,5.43
2023-05-24T02:20:31.817Z,5.28
2023-05-24T02:23:00.054Z,4.90
2023-05-24T02:25:27.502Z,5.32
2023-05-24T02:27:54.894Z,5.50
2023-05-24T02:30:22.097Z,5.05
2023-05-24T02:32:49.377Z,5.28
2023-05-24T02:35:16.625Z,5.60
2023-05-24T02:37:43.808Z,5.35
2023-05-24T02:40:11.372Z,5.10
2023-05-24T02:42:38.620Z,5.07
2023-05-24T02:45:06.319Z,5.80
2023-05-24T02:47:33.577Z,5.88
2023-05-24T02:50:00.880Z,6.45
2023-05-24T02:52:28.235Z,6.97
2023-05-24T02:54:55.408Z,7.60
2023-05-24T02:57:22.973Z,7.25
2023-05-24T02:59:50.215Z,7.93
2023-05-24T03:02:19.593Z,6.95
2023-05-24T03:04:46.815Z,7.30
2023-05-24T03:07:14.266Z,6.88
2023-05-24T03:09:41.443Z,7.15
2023-05-24T03:12:08.854Z,6.57
2023-05-24T03:14:36.248Z,5.95
2023-05-24T03:17:03.661Z,6.40
2023-05-24T03:19:31.017Z,5.88
2023-05-24T03:21:58.319Z,5.80
2023-05-24T03:24:26.125Z,5.15
2023-05-24T03:26:53.340Z,5.30
2023-05-24T03:29:20.858Z,5.35
2023-05-24T03:31:48.534Z,5.60
2023-05-24T03:34:15.842Z,5.20
2023-05-24T03:36:43.329Z,5.68
2023-05-24T03:39:10.531Z,5.10
2023-05-24T03:41:37.769Z,4.97
2023-05-24T03:44:05.090Z,5.72
2023-05-24T03:46:32.512Z,6.28
2023-05-24T03:48:59.958Z,6.30
2023-05-24T03:51:29.792Z,6.35
2023-05-24T03:53:57.819Z,6.18
2023-05-24T03:56:26.680Z,6.15
2023-05-24T03:58:54.155Z,5.75
2023-05-24T04:01:32.758Z,5.55
2023-05-24T04:04:01.697Z,5.60
2023-05-24T04:06:30.502Z,5.85
2023-05-24T04:08:58.518Z,5.55
2023-05-24T04:11:29.250Z,4.85
2023-05-24T04:13:57.084Z,5.32
2023-05-24T04:16:26.574Z,5.07
2023-05-24T04:18:58.093Z,4.85
2023-05-24T04:21:25.455Z,4.75
2023-05-24T04:23:52.654Z,5.10
2023-05-24T04:26:21.321Z,5.65
2023-05-24T04:28:48.949Z,5.22
2023-05-24T04:31:16.685Z,4.85
2023-05-24T04:33:44.003Z,5.20
2023-05-24T04:36:12.081Z,5.85
2023-05-24T04:38:39.804Z,5.30
2023-05-24T04:41:07.403Z,5.00
2023-05-24T04:43:35.096Z,5.00
2023-05-24T04:46:02.407Z,5.47
2023-05-24T04:48:29.723Z,5.40
2023-05-24T04:50:58.445Z,5.30
2023-05-24T04:53:25.916Z,5.28
2023-05-24T04:55:53.430Z,5.53
2023-05-24T04:58:20.743Z,5.85
2023-05-24T05:00:48.116Z,5.63
2023-05-24T05:03:16.060Z,5.22
2023-05-24T05:05:43.387Z,4.63
2023-05-24T05:08:10.631Z,4.68
2023-05-24T05:10:37.848Z,5.40
2023-05-24T05:13:05.126Z,5.55
2023-05-24T05:15:32.707Z,4.88
2023-05-24T05:18:00.411Z,5.38
2023-05-24T05:20:27.829Z,5.80
2023-05-24T05:22:55.286Z,5.20
2023-05-24T05:25:22.611Z,5.90
2023-05-24T05:27:50.026Z,5.70
2023-05-24T05:30:17.494Z,5.55
2023-05-24T05:32:44.843Z,5.47
2023-05-24T05:35:12.077Z,5.97
2023-05-24T05:37:40.513Z,5.10
2023-05-24T05:40:08.294Z,5.30
2023-05-24T05:42:35.802Z,5.47
2023-05-24T05:45:03.495Z,6.05
2023-05-24T05:47:30.981Z,5.50
2023-05-24T05:49:58.178Z,5.88
2023-05-24T05:52:25.552Z,4.93
2023-05-24T05:54:53.003Z,5.28
2023-05-24T05:57:24.250Z,6.30
2023-05-24T05:59:51.762Z,5.72
2023-05-24T06:02:19.413Z,5.65
2023-05-24T06:04:47.730Z,8.32
2023-05-24T06:07:15.034Z,7.78
2023-05-24T06:09:42.432Z,8.32
2023-05-24T06:12:09.606Z,7.75
2023-05-24T06:14:38.547Z,7.78
2023-05-24T06:17:09.475Z,7.85
2023-05-24T06:19:36.727Z,7.78
2023-05-24T06:22:03.993Z,8.18
2023-05-24T06:24:31.335Z,7.75
2023-05-24T06:26:59.863Z,6.85
2023-05-24T06:29:27.355Z,7.25
2023-05-24T06:31:54.665Z,8.38
2023-05-24T06:34:22.033Z,7.50
2023-05-24T06:36:51.271Z,6.95
2023-05-24T06:39:19.022Z,6.57
2023-05-24T06:41:47.082Z,6.88
2023-05-24T06:44:14.736Z,6.30
2023-05-24T06:46:42.590Z,5.93
2023-05-24T06:49:09.929Z,5.22
2023-05-24T06:51:38.344Z,5.72
2023-05-24T06:54:05.737Z,5.30
2023-05-24T06:56:33.228Z,5.78
2023-05-24T06:59:00.962Z,5.68
2023-05-24T07:01:30.203Z,6.38
2023-05-24T07:03:57.962Z,5.88
2023-05-24T07:06:25.360Z,6.25
2023-05-24T07:08:52.739Z,5.65
2023-05-24T07:11:19.986Z,5.65
2023-05-24T07:13:47.269Z,5.70
2023-05-24T07:16:14.563Z,5.43
2023-05-24T07:18:42.047Z,5.25
2023-05-24T07:21:09.359Z,5.57
2023-05-24T07:23:37.259Z,5.80
2023-05-24T07:26:04.897Z,5.70
2023-05-24T07:28:34.711Z,5.80
2023-05-24T07:31:01.941Z,6.50
2023-05-24T07:33:29.494Z,5.75
2023-05-24T07:35:56.919Z,5.80
2023-05-24T07:38:29.276Z,5.47
2023-05-24T07:40:57.322Z,5.32
2023-05-24T07:43:28.079Z,5.20
2023-05-24T07:45:56.146Z,5.28
2023-05-24T07:48:24.373Z,4.82
2023-05-24T07:50:52.668Z,4.57
2023-05-24T07:53:20.064Z,4.80
2023-05-24T07:55:47.382Z,4.53
2023-05-24T07:58:14.712Z,5.40
2023-05-24T08:00:42.769Z,4.97
2023-05-24T08:03:09.991Z,4.93
2023-05-24T08:05:37.266Z,4.38
2023-05-24T08:08:04.657Z,4.75
2023-05-24T08:10:32.180Z,4.38
2023-05-24T08:12:59.364Z,5.25
2023-05-24T08:15:26.591Z,4.63
2023-05-24T08:17:54.045Z,4.18
2023-05-24T08:20:21.479Z,4.97
2023-05-24T08:22:48.959Z,4.05
2023-05-24T08:25:16.391Z,4.57
2023-05-24T08:27:48.873Z,4.05
2023-05-24T08:30:16.289Z,4.15
2023-05-24T08:32:44.178Z,3.60
2023-05-24T08:37:48.357Z,4.90
2023-05-24T08:40:16.446Z,4.55
2023-05-24T08:42:44.374Z,5.43
2023-05-24T08:45:12.757Z,5.05
2023-05-24T08:47:42.109Z,5.35
2023-05-24T08:50:09.494Z,4.78
2023-05-24T08:52:40.022Z,5.00
2023-05-24T08:55:08.931Z,4.97
2023-05-24T08:57:41.499Z,5.32
2023-05-24T09:00:14.578Z,5.25
2023-05-24T09:02:43.391Z,5.25
2023-05-24T09:05:14.975Z,5.70
2023-05-24T09:07:44.716Z,5.45
2023-05-24T09:10:12.666Z,5.35
2023-05-24T09:12:40.624Z,5.65
2023-05-24T09:15:08.907Z,6.03
2023-05-24T09:17:37.665Z,6.30
2023-05-24T09:20:07.958Z,5.00
2023-05-24T09:22:40.370Z,5.50
2023-05-24T09:25:09.848Z,5.60
2023-05-24T09:27:37.805Z,5.20
2023-05-24T09:30:08.989Z,5.65
2023-05-24T09:32:36.484Z,5.25
2023-05-24T09:35:04.259Z,5.97
2023-05-24T09:37:33.227Z,5.35
2023-05-24T09:40:00.786Z,6.30
2023-05-24T09:42:28.929Z,6.43
2023-05-24T09:45:02.592Z,6.82
2023-05-24T09:47:33.687Z,6.82
2023-05-24T09:50:01.480Z,6.18
2023-05-24T09:52:29.070Z,6.63
2023-05-24T09:54:56.628Z,6.30
2023-05-24T09:57:24.098Z,6.05
2023-05-24T09:59:53.357Z,6.28
2023-05-24T10:02:24.477Z,6.43
2023-05-24T10:04:58.720Z,5.85
2023-05-24T10:07:26.234Z,6.78
2023-05-24T10:09:53.976Z,6.05
2023-05-24T10:12:25.724Z,6.22
2023-05-24T10:14:53.055Z,6.18
2023-05-24T10:17:23.489Z,6.28
2023-05-24T10:19:52.307Z,6.57
2023-05-24T10:22:23.592Z,6.90
2023-05-24T10:24:52.507Z,6.82
2023-05-24T10:27:26.452Z,7.32
2023-05-24T10:30:11.437Z,7.32
2023-05-24T10:32:41.927Z,7.03
2023-05-24T10:35:12.446Z,7.60
2023-05-24T10:37:40.180Z,7.93
2023-05-24T10:40:10.088Z,7.40
2023-05-24T10:42:40.064Z,7.68
2023-05-24T10:45:26.343Z,7.53
2023-05-24T10:47:54.650Z,7.05
2023-05-24T10:50:23.369Z,6.65
2023-05-24T10:52:50.762Z,7.00
2023-05-24T10:55:23.990Z,6.88
2023-05-24T10:57:53.651Z,6.82
2023-05-24T11:00:34.717Z,7.00
2023-05-24T11:03:04.340Z,6.93
2023-05-24T11:05:48.049Z,6.97
2023-05-24T11:08:15.547Z,6.07
2023-05-24T11:10:46.103Z,6.85
2023-05-24T11:13:13.529Z,6.78
2023-05-24T11:15:41.400Z,6.55
2023-05-24T11:18:20.298Z,6.78
2023-05-24T11:20:48.914Z,7.05
2023-05-24T11:23:16.966Z,7.38
2023-05-24T11:25:44.354Z,7.05
2023-05-24T11:28:12.589Z,7.20
2023-05-24T11:30:49.215Z,6.80
2023-05-24T11:33:20.114Z,7.00
2023-05-24T11:35:48.006Z,6.18
2023-05-24T11:38:16.246Z,7.22
2023-05-24T11:40:47.069Z,6.80
2023-05-24T11:43:16.688Z,6.43
2023-05-24T11:45:46.632Z,7.47
2023-05-24T11:48:14.333Z,7.60
2023-05-24T11:50:49.281Z,7.10
2023-05-24T11:53:20.143Z,7.38
2023-05-24T11:55:48.887Z,6.57
2023-05-24T11:58:18.895Z,7.13
2023-05-24T12:00:46.118Z,7.25
2023-05-24T12:07:06.593Z,6.28
2023-05-24T12:09:34.108Z,7.93
2023-05-24T12:12:05.150Z,7.75
2023-05-24T12:14:34.772Z,7.22
2023-05-24T12:17:02.351Z,6.75
2023-05-24T12:19:36.889Z,6.68
2023-05-24T12:24:32.940Z,6.75
2023-05-24T12:27:07.835Z,5.93
2023-05-24T12:29:36.810Z,5.97
2023-05-24T12:32:05.016Z,5.93
2023-05-24T12:34:33.438Z,6.30
2023-05-24T12:37:00.862Z,5.90
2023-05-24T12:39:34.061Z,5.78
2023-05-24T12:42:01.937Z,4.78
2023-05-24T12:44:30.624Z,5.53
2023-05-24T12:46:58.398Z,5.57
2023-05-24T12:49:27.067Z,5.43
2023-05-24T12:51:55.292Z,6.25
2023-05-24T12:54:26.944Z,5.18
2023-05-24T12:56:56.619Z,5.28
2023-05-24T12:59:24.498Z,4.70
2023-05-24T13:01:53.539Z,4.93
2023-05-24T13:04:22.442Z,5.43
2023-05-24T13:06:50.238Z,5.70
2023-05-24T13:09:24.728Z,5.57
2023-05-24T13:11:52.757Z,4.95
2023-05-24T13:14:20.454Z,5.47
2023-05-24T13:16:48.124Z,5.85
2023-05-24T13:19:15.858Z,6.28
2023-05-24T13:21:43.102Z,6.47
2023-05-24T13:24:10.668Z,6.47
2023-05-24T13:26:38.981Z,6.10
2023-05-24T13:31:38.111Z,6.75
2023-05-24T13:34:05.906Z,7.32
2023-05-24T13:36:40.633Z,6.10
2023-05-24T13:41:49.973Z,5.57
2023-05-24T13:44:17.497Z,6.63
2023-05-24T13:46:44.798Z,5.70
2023-05-24T13:49:12.906Z,5.85
2023-05-24T13:51:43.458Z,5.40
2023-05-24T13:54:11.661Z,6.00
2023-05-24T13:56:40.015Z,6.50
2023-05-24T13:59:07.999Z,6.18
2023-05-24T14:04:26.805Z,6.60
2023-05-24T14:07:06.780Z,6.07
2023-05-24T14:09:37.273Z,6.25
2023-05-24T14:12:04.599Z,5.95
2023-05-24T14:17:01.909Z,5.38
2023-05-24T14:19:29.140Z,6.05
2023-05-24T14:21:56.374Z,5.32
2023-05-24T14:24:28.014Z,5.03
2023-05-24T14:26:56.676Z,6.22
2023-05-24T14:29:24.001Z,5.65
2023-05-24T14:31:51.650Z,5.25
2023-05-24T14:34:26.127Z,5.05
2023-05-24T14:36:53.751Z,4.65
2023-05-24T14:39:21.780Z,5.38
2023-05-24T14:41:49.117Z,5.53
2023-05-24T14:44:16.380Z,4.80
2023-05-24T14:46:43.663Z,5.00
2023-05-24T14:49:18.532Z,5.32
2023-05-24T14:54:13.313Z,5.72
2023-05-24T14:56:42.999Z,6.07
2023-05-24T14:59:10.307Z,6.18
2023-05-24T15:01:38.144Z,5.68
2023-05-24T15:07:26.405Z,5.15
2023-05-24T15:09:53.983Z,5.55
2023-05-24T15:12:21.321Z,5.00
2023-05-24T15:14:48.491Z,5.20
2023-05-24T15:17:15.978Z,5.55
2023-05-24T15:19:45.330Z,4.90
2023-05-24T15:22:13.756Z,4.53
2023-05-24T15:24:53.533Z,5.10
2023-05-24T15:27:50.447Z,4.65
2023-05-24T15:30:31.429Z,4.65
2023-05-24T15:33:33.535Z,5.28
2023-05-24T15:39:20.767Z,4.43
2023-05-24T15:41:51.686Z,4.13
2023-05-24T15:44:56.078Z,4.93
2023-05-24T15:47:30.437Z,4.70
2023-05-24T15:49:57.630Z,4.03
2023-05-24T15:52:24.929Z,4.38
2023-05-24T15:54:52.158Z,4.80
2023-05-24T15:57:19.410Z,5.63
2023-05-24T15:59:46.697Z,4.60
2023-05-24T16:02:14.006Z,5.47
2023-05-24T16:04:41.894Z,5.35
2023-05-24T16:07:11.257Z,5.65
2023-05-24T16:09:41.888Z,5.22
2023-05-24T16:12:10.755Z,4.68
2023-05-24T16:14:38.205Z,5.03
2023-05-24T16:17:05.801Z,4.70
2023-05-24T16:19:33.246Z,4.80
2023-05-24T16:22:00.644Z,5.00
2023-05-24T16:24:28.155Z,5.07
2023-05-24T16:26:55.412Z,5.05
2023-05-24T16:29:22.589Z,4.80
2023-05-24T16:31:49.852Z,5.00
2023-05-24T16:34:17.253Z,4.90
2023-05-24T16:36:47.347Z,5.53
2023-05-24T16:39:15.012Z,5.25
2023-05-24T16:41:42.600Z,5.15
2023-05-24T16:44:26.899Z,5.13
2023-05-24T16:46:57.326Z,4.90
2023-05-24T16:49:24.665Z,5.20
2023-05-24T16:51:51.957Z,5.20
2023-05-24T16:54:19.209Z,5.55
2023-05-24T16:56:48.028Z,5.47
2023-05-24T16:59:17.117Z,4.93
2023-05-24T17:01:45.403Z,5.82
2023-05-24T17:04:12.857Z,4.93
2023-05-24T17:06:40.135Z,5.35
2023-05-24T17:09:07.841Z,5.57
2023-05-24T17:11:35.055Z,5.53
2023-05-24T17:14:04.755Z,5.40
2023-05-24T17:16:32.132Z,4.93
2023-05-24T17:18:59.403Z,4.90
2023-05-24T17:21:28.038Z,5.45
2023-05-24T17:23:56.827Z,5.60
2023-05-24T17:26:24.591Z,5.40
2023-05-24T17:28:52.050Z,4.32
2023-05-24T17:31:19.505Z,5.30
2023-05-24T17:33:46.741Z,5.63
2023-05-24T17:36:13.961Z,5.60
2023-05-24T17:38:44.508Z,5.82
2023-05-24T17:41:14.419Z,5.50
2023-05-24T17:43:41.974Z,5.30
2023-05-24T17:46:09.997Z,5.18
2023-05-24T17:48:38.028Z,5.18
2023-05-24T17:51:08.875Z,5.53
2023-05-24T17:53:37.682Z,5.18
2023-05-24T17:56:06.106Z,5.75
2023-05-24T17:58:36.699Z,5.72
2023-05-24T18:01:07.461Z,5.40
2023-05-24T18:03:37.126Z,5.75
2023-05-24T18:06:06.729Z,4.93
2023-05-24T18:08:36.106Z,6.03
2023-05-24T18:11:08.058Z,5.60
2023-05-24T18:13:36.167Z,5.70
2023-05-24T18:16:03.470Z,5.05
2023-05-24T18:18:33.293Z,5.47
2023-05-24T18:21:00.910Z,4.95
2023-05-24T18:23:28.274Z,5.78
2023-05-24T18:26:00.184Z,5.18
2023-05-24T18:28:29.588Z,5.85
2023-05-24T18:30:56.973Z,5.20
2023-05-24T18:33:24.335Z,4.90
2023-05-24T18:35:51.817Z,5.45
2023-05-24T18:38:19.140Z,5.30
2023-05-24T18:40:46.681Z,5.13
2023-05-24T18:43:13.989Z,4.68
2023-05-24T18:45:41.430Z,5.18
2023-05-24T18:48:08.881Z,5.00
2023-05-24T18:50:36.701Z,4.70
2023-05-24T18:53:03.983Z,4.75
2023-05-24T18:55:31.224Z,4.95
2023-05-24T18:57:58.565Z,4.53
2023-05-24T19:00:26.191Z,3.97
2023-05-24T19:02:55.465Z,4.35
2023-05-24T19:05:22.741Z,3.92
2023-05-24T19:07:50.360Z,3.70
2023-05-24T19:10:17.879Z,3.72
2023-05-24T19:12:45.287Z,3.47
2023-05-24T19:15:12.695Z,4.32
2023-05-24T19:17:41.496Z,3.92
2023-05-24T19:20:09.038Z,3.85
2023-05-24T19:22:36.430Z,3.70
2023-05-24T19:25:03.719Z,3.97
2023-05-24T19:27:31.062Z,3.60
2023-05-24T19:30:00.128Z,3.95
2023-05-24T19:32:27.617Z,4.57
2023-05-24T19:34:54.955Z,3.83
2023-05-24T19:37:22.154Z,4.38
2023-05-24T19:39:49.401Z,4.82
2023-05-24T19:42:16.619Z,5.15
2023-05-24T19:44:46.863Z,4.13
2023-05-24T19:47:14.076Z,4.35
2023-05-24T19:49:41.624Z,4.80
2023-05-24T19:52:09.081Z,4.85
2023-05-24T19:54:36.346Z,4.15
2023-05-24T19:57:05.934Z,4.93
2023-05-24T19:59:34.381Z,4.82
2023-05-24T20:02:01.715Z,4.82
2023-05-24T20:04:29.058Z,4.90
2023-05-24T20:06:56.314Z,4.93
2023-05-24T20:09:23.489Z,5.35
2023-05-24T20:11:51.388Z,4.30
2023-05-24T20:14:18.642Z,5.15
2023-05-24T20:16:46.032Z,4.60
2023-05-24T20:19:13.497Z,5.25
2023-05-24T20:21:41.355Z,5.47
2023-05-24T20:24:08.542Z,4.97
2023-05-24T20:26:37.667Z,5.15
2023-05-24T20:29:04.931Z,5.30
2023-05-24T20:31:32.319Z,4.63
2023-05-24T20:34:02.937Z,5.63
2023-05-24T20:36:30.175Z,5.28
2023-05-24T20:38:57.491Z,5.18
2023-05-24T20:41:24.939Z,4.85
2023-05-24T20:43:52.239Z,4.95
2023-05-24T20:46:19.594Z,5.70
2023-05-24T20:48:46.874Z,4.72
2023-05-24T20:51:14.188Z,5.10
2023-05-24T20:53:41.451Z,4.90
2023-05-24T20:56:08.636Z,4.68
2023-05-24T20:58:36.015Z,4.75
2023-05-24T21:01:03.327Z,4.43
2023-05-24T21:03:30.651Z,4.32
2023-05-24T21:05:58.203Z,4.68
2023-05-24T21:08:25.432Z,4.53
2023-05-24T21:10:55.571Z,4.57
2023-05-24T21:13:24.235Z,4.60
2023-05-24T21:15:51.516Z,4.97
2023-05-24T21:18:18.793Z,4.22
2023-05-24T21:20:46.201Z,4.75
2023-05-24T21:23:13.438Z,3.90
2023-05-24T21:25:40.912Z,4.25
2023-05-24T21:28:10.582Z,4.15
2023-05-24T21:30:37.888Z,3.30
2023-05-24T21:33:05.232Z,3.45
2023-05-24T21:35:32.738Z,3.60
2023-05-24T21:38:00.296Z,3.70
2023-05-24T21:40:27.645Z,3.28
2023-05-24T21:42:54.971Z,3.58
2023-05-24T21:45:22.164Z,4.28
2023-05-24T21:47:49.488Z,3.08
2023-05-24T21:50:16.746Z,3.20
2023-05-24T21:52:43.988Z,3.58
2023-05-24T21:55:11.322Z,3.22
2023-05-24T21:57:38.641Z,3.20
2023-05-24T22:00:06.270Z,3.90
2023-05-24T22:02:33.647Z,3.40
2023-05-24T22:05:01.295Z,3.42
2023-05-24T22:07:28.692Z,3.15
2023-05-24T22:09:56.248Z,3.40
2023-05-24T22:12:23.510Z,3.40
2023-05-24T22:14:50.806Z,3.90
2023-05-24T22:17:18.027Z,3.35
2023-05-24T22:19:45.285Z,3.20
2023-05-24T22:22:12.547Z,3.65
2023-05-24T22:24:40.683Z,3.60
2023-05-24T22:27:16.859Z,3.67
2023-05-24T22:29:44.406Z,3.47
2023-05-24T22:32:11.807Z,4.30
2023-05-24T22:34:39.242Z,3.45
2023-05-24T22:37:06.809Z,3.63
2023-05-24T22:39:37.107Z,3.42
2023-05-24T22:42:04.442Z,3.50
2023-05-24T22:44:31.637Z,3.38
2023-05-24T22:46:59.184Z,3.45
2023-05-24T22:49:29.562Z,3.80
2023-05-24T22:51:56.882Z,3.33
2023-05-24T22:54:24.065Z,3.40
2023-05-24T22:56:51.247Z,3.88
2023-05-24T22:59:18.466Z,3.30
2023-05-24T23:01:45.909Z,3.42
2023-05-24T23:06:46.842Z,3.95
2023-05-24T23:09:14.527Z,3.58
2023-05-24T23:11:42.963Z,3.63
2023-05-24T23:14:11.462Z,3.92
2023-05-24T23:16:46.158Z,3.05
2023-05-24T23:19:18.333Z,3.22
2023-05-24T23:21:46.263Z,3.72
2023-05-24T23:24:15.890Z,4.13
2023-05-24T23:26:43.378Z,3.35
2023-05-24T23:29:10.995Z,3.60
2023-05-24T23:31:38.324Z,3.72
2023-05-24T23:34:05.801Z,3.22
2023-05-24T23:36:33.511Z,3.65
2023-05-24T23:39:00.922Z,4.03
2023-05-24T23:41:28.105Z,3.55
2023-05-24T23:43:55.339Z,3.55
2023-05-24T23:46:22.580Z,3.10
2023-05-24T23:48:49.848Z,3.83
2023-05-24T23:51:17.142Z,3.83
2023-05-24T23:53:44.369Z,4.00
2023-05-24T23:56:11.737Z,3.28
2023-05-24T23:58:38.995Z,3.80
